Time;durP1;ratioP1;P1;durP2;ratioP2;P2;SDS_P1;SDS_P2;PMS_P1;PMS_P2;Temp;Humidity;BMP_temperature;BMP_pressure;BME280_temperature;BME280_humidity;BME280_pressure;Samples;Min_cycle;Max_cycle;Signal;HPM_P1;HPM_P2
2021/08/29 00:00:17;;;;;;;;;6.25;4.50;;;;;20.28;54.56;101805.53;5040437;28;45675;-63
2021/08/29 00:02:44;;;;;;;;;1.00;1.00;;;;;20.22;54.60;101786.88;5040510;28;46060;-63
2021/08/29 00:05:09;;;;;;;;;5.25;5.00;;;;;20.26;55.10;101793.00;5040570;28;45459;-63
2021/08/29 00:07:35;;;;;;;;;6.75;4.00;;;;;20.23;54.99;101788.63;5040903;28;45248;-63
2021/08/29 00:10:00;;;;;;;;;5.25;5.25;;;;;20.22;55.19;101789.59;5040261;28;45359;-62
2021/08/29 00:12:26;;;;;;;;;6.25;4.75;;;;;20.23;54.88;101785.03;5040517;28;45305;-63
2021/08/29 00:14:51;;;;;;;;;5.00;5.00;;;;;20.19;55.13;101784.34;5040193;28;45233;-63
2021/08/29 00:17:17;;;;;;;;;6.25;5.75;;;;;20.11;55.04;101770.34;5040844;28;45204;-62
2021/08/29 00:19:42;;;;;;;;;7.75;6.00;;;;;20.17;54.77;101778.13;5040397;28;45289;-63
2021/08/29 00:22:08;;;;;;;;;6.25;5.50;;;;;20.23;55.05;101791.34;5040217;28;45969;-62
2021/08/29 00:24:33;;;;;;;;;3.00;2.50;;;;;20.21;54.87;101786.97;5040169;28;45204;-63
2021/08/29 00:26:58;;;;;;;;;5.00;5.00;;;;;20.14;55.14;101784.59;5022452;28;45398;-63
2021/08/29 00:29:24;;;;;;;;;5.50;5.25;;;;;20.15;54.88;101782.78;5039907;28;45243;-63
2021/08/29 00:31:49;;;;;;;;;4.25;3.25;;;;;20.10;55.09;101776.75;5040505;28;46321;-62
2021/08/29 00:34:14;;;;;;;;;6.50;6.50;;;;;20.05;55.06;101771.56;5040065;28;45473;-63
2021/08/29 00:36:40;;;;;;;;;6.00;5.00;;;;;20.06;55.30;101780.56;5040370;28;45335;-63
2021/08/29 00:39:05;;;;;;;;;6.00;6.00;;;;;20.06;55.17;101783.28;5039902;28;45466;-62
2021/08/29 00:41:31;;;;;;;;;6.75;4.25;;;;;20.08;55.17;101774.13;5039889;28;45431;-63
2021/08/29 00:43:57;;;;;;;;;5.50;5.00;;;;;20.04;55.15;101772.50;5039206;28;45376;-63
2021/08/29 00:46:22;;;;;;;;;5.00;5.00;;;;;19.99;55.24;101772.75;5040234;28;45355;-63
2021/08/29 00:48:50;;;;;;;;;7.00;5.25;;;;;20.07;55.42;101779.63;5039990;28;45308;-63
2021/08/29 00:51:15;;;;;;;;;9.00;6.50;;;;;20.01;55.03;101766.41;5040071;28;45474;-63
2021/08/29 00:53:50;;;;;;;;;15.00;14.50;;;;;20.08;55.42;101773.22;5039890;28;45422;-63
2021/08/29 00:56:19;;;;;;;;;7.00;5.25;;;;;20.09;55.52;101775.84;5039936;28;45220;-63
2021/08/29 00:58:46;;;;;;;;;7.25;5.00;;;;;20.05;55.37;101768.00;5039674;28;45436;-62
2021/08/29 01:01:21;;;;;;;;;6.00;5.00;;;;;20.05;55.59;101776.13;5039771;28;46208;-63
2021/08/29 01:03:49;;;;;;;;;6.50;4.75;;;;;20.07;55.39;101768.78;5039761;28;45336;-63
2021/08/29 01:06:21;;;;;;;;;8.25;7.25;;;;;20.06;55.25;101772.44;5040021;28;45265;-63
2021/08/29 01:08:52;;;;;;;;;6.75;6.25;;;;;20.01;55.35;101764.56;5039611;28;45631;-63
2021/08/29 01:11:26;;;;;;;;;6.75;6.00;;;;;20.03;55.41;101778.91;5039313;28;45276;-63
2021/08/29 01:13:58;;;;;;;;;7.50;6.75;;;;;19.93;55.65;101754.16;5039697;28;45459;-63
2021/08/29 01:16:24;;;;;;;;;7.25;7.00;;;;;19.94;55.65;101764.03;5039856;28;45247;-63
2021/08/29 01:18:53;;;;;;;;;9.50;9.50;;;;;19.99;55.64;101780.91;5039794;28;45431;-63
2021/08/29 01:21:22;;;;;;;;;6.75;5.75;;;;;19.99;55.73;101775.47;5039377;28;46215;-62
2021/08/29 01:23:52;;;;;;;;;9.00;9.00;;;;;19.97;55.67;101771.13;5039854;28;46009;-62
2021/08/29 01:26:31;;;;;;;;;6.50;6.50;;;;;19.92;55.92;101765.09;5039449;28;45213;-63
2021/08/29 01:29:05;;;;;;;;;8.25;8.25;;;;;19.90;55.88;101765.16;5039240;28;45446;-63
2021/08/29 01:31:32;;;;;;;;;12.50;11.00;;;;;19.89;55.92;101768.81;5039412;28;46559;-63
2021/08/29 01:34:01;;;;;;;;;7.75;6.75;;;;;19.81;55.87;101762.94;5021513;28;45336;-63
2021/08/29 01:36:28;;;;;;;;;8.25;7.50;;;;;19.82;56.17;101769.25;5039423;28;45215;-63
2021/08/29 01:38:54;;;;;;;;;5.50;5.50;;;;;19.76;56.03;101763.22;5039077;28;45514;-63
2021/08/29 01:41:23;;;;;;;;;9.50;7.50;;;;;19.71;56.49;101761.69;5038942;28;46686;-63
2021/08/29 01:43:49;;;;;;;;;6.50;6.50;;;;;19.69;56.32;101761.75;5039036;28;45351;-63
2021/08/29 01:46:18;;;;;;;;;6.50;6.50;;;;;19.69;56.50;101759.06;5039468;28;45527;-63
2021/08/29 01:48:44;;;;;;;;;8.00;7.00;;;;;19.69;56.41;101766.31;5039350;28;45365;-62
2021/08/29 01:51:10;;;;;;;;;6.25;6.00;;;;;19.65;56.67;101756.63;5039098;28;46499;-62
2021/08/29 01:53:37;;;;;;;;;9.00;6.50;;;;;19.71;56.47;101769.81;5039088;28;45317;-62
2021/08/29 01:56:03;;;;;;;;;7.25;6.25;;;;;19.66;56.74;101761.91;5042560;28;45423;-62
2021/08/29 01:58:28;;;;;;;;;12.75;7.75;;;;;19.70;56.89;101778.91;5042414;28;45340;-62
2021/08/29 02:00:57;;;;;;;;;6.00;6.00;;;;;19.68;56.63;101776.28;5041180;28;45414;-62
2021/08/29 02:03:24;;;;;;;;;8.00;6.50;;;;;19.62;56.65;101773.91;5042406;28;45169;-63
2021/08/29 02:05:56;;;;;;;;;7.25;7.25;;;;;19.66;56.71;101782.72;5042611;28;45365;-62
2021/08/29 02:08:23;;;;;;;;;7.75;7.00;;;;;19.62;56.83;101774.75;5042441;28;45328;-63
2021/08/29 02:10:51;;;;;;;;;13.50;9.25;;;;;19.61;56.86;101764.00;5041999;28;45420;-62
2021/08/29 02:13:22;;;;;;;;;9.50;7.00;;;;;19.66;56.95;101774.59;5042152;28;45267;-62
2021/08/29 02:16:02;;;;;;;;;8.00;6.50;;;;;19.67;56.92;101784.50;5042633;28;45166;-63
2021/08/29 02:18:32;;;;;;;;;10.50;7.00;;;;;19.65;57.04;101789.13;5042163;28;45295;-62
2021/08/29 02:20:58;;;;;;;;;13.50;9.75;;;;;19.63;57.20;101787.34;5042033;28;45381;-62
2021/08/29 02:23:26;;;;;;;;;8.50;8.00;;;;;19.61;57.16;101783.88;5042435;28;45356;-63
2021/08/29 02:25:52;;;;;;;;;9.50;7.00;;;;;19.57;56.65;101773.28;5041974;28;45324;-62
2021/08/29 02:28:19;;;;;;;;;9.00;7.25;;;;;19.60;57.28;101790.22;5041960;28;45248;-62
2021/08/29 02:30:45;;;;;;;;;10.25;9.00;;;;;19.57;56.97;101784.97;5042083;28;45281;-63
2021/08/29 02:33:11;;;;;;;;;8.25;7.00;;;;;19.59;57.11;101783.03;5042133;28;45461;-62
2021/08/29 02:35:39;;;;;;;;;10.50;9.25;;;;;19.58;56.94;101784.03;5042071;28;45241;-62
2021/08/29 02:38:05;;;;;;;;;9.25;9.00;;;;;19.59;57.14;101784.88;5041675;28;45435;-63
2021/08/29 02:40:40;;;;;;;;;9.25;9.00;;;;;19.59;57.33;101788.47;5041759;28;45416;-63
2021/08/29 02:43:07;;;;;;;;;7.50;7.50;;;;;19.59;57.11;101793.00;5041827;28;45247;-63
2021/08/29 02:45:34;;;;;;;;;10.50;8.00;;;;;19.58;57.06;101791.28;5042039;28;45359;-62
2021/08/29 02:48:01;;;;;;;;;12.75;10.75;;;;;19.53;57.09;101786.09;5042013;28;45521;-63
2021/08/29 02:50:27;;;;;;;;;11.00;9.50;;;;;19.49;57.41;101773.66;5041736;28;46201;-62
2021/08/29 02:52:53;;;;;;;;;11.50;11.00;;;;;19.48;57.44;101782.78;5041784;28;45286;-63
2021/08/29 02:55:19;;;;;;;;;10.25;8.25;;;;;19.47;57.39;101783.72;5041637;28;45295;-62
2021/08/29 02:57:46;;;;;;;;;10.25;9.00;;;;;19.41;57.46;101776.81;5041620;28;45469;-62
2021/08/29 03:00:13;;;;;;;;;11.50;8.25;;;;;19.44;57.48;101778.47;5041457;28;46220;-62
2021/08/29 03:02:41;;;;;;;;;12.00;11.00;;;;;19.42;57.34;101781.25;5041637;28;45416;-62
2021/08/29 03:05:07;;;;;;;;;11.00;10.00;;;;;19.40;57.53;101777.75;5041703;28;45313;-62
2021/08/29 03:07:32;;;;;;;;;10.25;8.50;;;;;19.40;57.64;101785.88;5039867;28;45275;-62
2021/08/29 03:09:58;;;;;;;;;9.25;9.25;;;;;19.36;57.61;101776.19;5041008;28;45961;-62
2021/08/29 03:12:24;;;;;;;;;10.25;8.25;;;;;19.37;57.61;101786.03;5041565;28;45225;-62
2021/08/29 03:14:50;;;;;;;;;13.00;10.25;;;;;19.31;57.80;101771.94;5041424;28;45482;-63
2021/08/29 03:17:16;;;;;;;;;9.75;9.75;;;;;19.35;58.08;101776.25;5041532;28;45402;-62
2021/08/29 03:19:43;;;;;;;;;11.50;9.75;;;;;19.30;57.73;101771.06;5041226;28;46041;-63
2021/08/29 03:22:09;;;;;;;;;11.75;10.25;;;;;19.31;58.06;101777.34;5041507;28;45552;-62
2021/08/29 03:24:35;;;;;;;;;12.00;12.00;;;;;19.23;58.01;101762.41;5023305;28;45458;-62
2021/08/29 03:27:00;;;;;;;;;8.75;8.75;;;;;19.20;57.83;101761.69;5041081;28;45520;-63
2021/08/29 03:29:26;;;;;;;;;10.00;8.75;;;;;19.27;57.99;101767.66;5040687;28;46552;-63
2021/08/29 03:31:51;;;;;;;;;12.00;8.25;;;;;19.24;57.88;101766.88;5041209;28;45165;-63
2021/08/29 03:34:18;;;;;;;;;10.25;8.25;;;;;19.26;58.48;101764.06;5041017;28;45182;-62
2021/08/29 03:36:45;;;;;;;;;12.00;8.75;;;;;19.20;57.96;101759.84;5041097;28;45430;-62
2021/08/29 03:39:12;;;;;;;;;8.75;8.75;;;;;19.20;58.42;101753.56;5040516;28;46983;-62
2021/08/29 03:41:39;;;;;;;;;7.25;7.25;;;;;19.29;58.01;101760.31;5040817;28;45310;-63
2021/08/29 03:44:07;;;;;;;;;10.00;8.25;;;;;19.23;57.86;101748.00;5023026;28;45281;-63
2021/08/29 03:46:33;;;;;;;;;8.25;8.00;;;;;19.25;58.02;101751.50;5041096;28;45260;-62
2021/08/29 03:48:59;;;;;;;;;7.75;7.00;;;;;19.28;57.99;101758.56;5040860;28;45479;-62
2021/08/29 03:51:25;;;;;;;;;8.75;8.00;;;;;19.31;58.30;101762.00;5040975;28;45425;-63
2021/08/29 03:53:50;;;;;;;;;7.50;5.50;;;;;19.30;58.05;101749.41;5040829;28;45294;-63
2021/08/29 03:56:16;;;;;;;;;8.75;8.75;;;;;19.34;58.02;101755.53;5022808;28;45574;-63
2021/08/29 03:58:42;;;;;;;;;13.50;11.25;;;;;19.21;57.98;101730.94;5040319;28;46140;-62
2021/08/29 04:01:08;;;;;;;;;11.75;10.00;;;;;19.28;57.99;101751.34;5040792;28;45407;-62
2021/08/29 04:03:33;;;;;;;;;11.25;9.00;;;;;19.17;58.19;101727.53;5040658;28;45475;-62
2021/08/29 04:06:00;;;;;;;;;8.50;7.25;;;;;19.23;58.22;101746.16;5040902;28;45344;-63
2021/08/29 04:08:34;;;;;;;;;9.00;7.00;;;;;19.24;58.28;101750.63;5040366;28;46270;-63
2021/08/29 04:11:00;;;;;;;;;10.25;7.25;;;;;19.20;58.12;101757.16;5040595;28;45445;-62
2021/08/29 04:13:27;;;;;;;;;8.25;7.50;;;;;19.17;58.41;101749.19;5040448;28;45225;-63
2021/08/29 04:15:53;;;;;;;;;7.00;7.00;;;;;19.16;58.70;101749.25;5040735;28;45255;-63
2021/08/29 04:18:22;;;;;;;;;7.00;6.00;;;;;19.11;58.18;101748.63;5039134;28;46582;-62
2021/08/29 04:20:48;;;;;;;;;7.75;6.00;;;;;19.01;58.40;101737.41;5040461;28;45347;-62
2021/08/29 04:23:14;;;;;;;;;8.75;8.00;;;;;19.04;58.54;101742.66;5040340;28;45379;-62
2021/08/29 04:25:40;;;;;;;;;9.50;9.00;;;;;19.06;58.68;101756.97;5040031;28;45338;-63
2021/08/29 04:28:06;;;;;;;;;7.75;6.50;;;;;18.99;58.79;101734.78;5018652;28;47059;-63
2021/08/29 04:30:32;;;;;;;;;7.25;6.00;;;;;19.04;58.79;101757.09;5031747;28;45212;-62
2021/08/29 04:32:57;;;;;;;;;7.00;6.25;;;;;18.96;58.73;101744.88;5022105;28;45292;-62
2021/08/29 04:35:23;;;;;;;;;5.75;4.75;;;;;19.01;58.73;101757.25;5020349;28;45387;-62
2021/08/29 04:37:49;;;;;;;;;9.50;8.25;;;;;18.91;58.26;101744.25;5033290;28;46530;-62
2021/08/29 04:40:15;;;;;;;;;8.25;7.00;;;;;18.96;58.77;101753.91;5039862;28;45420;-63
2021/08/29 04:42:40;;;;;;;;;9.75;7.50;;;;;18.95;58.68;101767.50;5040097;28;45506;-63
2021/08/29 04:45:05;;;;;;;;;10.00;8.75;;;;;18.91;58.95;101752.38;5039969;28;45499;-62
2021/08/29 04:47:31;;;;;;;;;8.75;8.50;;;;;18.92;59.15;101764.97;5039992;28;45399;-62
2021/08/29 04:49:56;;;;;;;;;9.75;9.50;;;;;18.93;58.80;101758.56;5039954;28;45312;-63
2021/08/29 04:52:22;;;;;;;;;10.25;8.25;;;;;18.94;58.66;101761.19;5039976;28;45332;-63
2021/08/29 04:54:47;;;;;;;;;13.75;9.25;;;;;18.93;59.08;101755.88;5039813;28;45303;-62
2021/08/29 04:57:12;;;;;;;;;6.50;6.50;;;;;18.92;58.70;101754.13;5039759;28;45324;-63
2021/08/29 04:59:38;;;;;;;;;13.00;9.00;;;;;18.93;58.66;101762.19;5039795;28;45367;-63
2021/08/29 05:02:03;;;;;;;;;10.75;7.75;;;;;18.92;58.60;101752.28;5039954;28;45559;-63
2021/08/29 05:04:29;;;;;;;;;8.25;8.00;;;;;18.89;58.90;101757.84;5039919;28;45443;-62
2021/08/29 05:06:54;;;;;;;;;8.00;7.00;;;;;18.91;59.16;101761.38;5039765;28;46233;-62
2021/08/29 05:09:19;;;;;;;;;6.00;6.00;;;;;18.89;58.72;101757.84;5039674;28;45320;-62
2021/08/29 05:11:44;;;;;;;;;5.25;5.25;;;;;18.89;58.82;101760.56;5039624;28;45225;-62
2021/08/29 05:14:10;;;;;;;;;6.50;6.00;;;;;18.81;58.95;101755.53;5039812;28;45287;-62
2021/08/29 05:16:35;;;;;;;;;5.00;4.75;;;;;18.94;58.93;101772.03;5039676;28;45240;-62
2021/08/29 05:19:00;;;;;;;;;7.75;6.50;;;;;18.91;59.07;101758.69;5039715;28;45308;-62
2021/08/29 05:21:26;;;;;;;;;6.25;5.25;;;;;18.88;58.98;101765.09;5039735;28;45350;-63
2021/08/29 05:23:51;;;;;;;;;8.25;8.00;;;;;18.89;58.80;101771.38;5039822;28;45213;-62
2021/08/29 05:26:16;;;;;;;;;11.75;7.75;;;;;18.86;59.12;101769.72;5037818;28;47039;-62
2021/08/29 05:28:42;;;;;;;;;6.75;6.00;;;;;18.74;59.12;101750.50;5039500;28;45347;-62
2021/08/29 05:31:07;;;;;;;;;9.50;8.00;;;;;18.80;59.20;101770.00;5043090;28;45272;-63
2021/08/29 05:33:32;;;;;;;;;7.50;7.50;;;;;18.79;59.03;101770.06;5043109;28;45217;-63
2021/08/29 05:35:58;;;;;;;;;9.25;9.25;;;;;18.77;59.39;101763.88;5042937;28;46608;-63
2021/08/29 05:38:23;;;;;;;;;7.00;7.00;;;;;18.80;58.90;101775.41;5042650;28;45428;-63
2021/08/29 05:40:48;;;;;;;;;10.50;9.00;;;;;18.77;59.39;101774.69;5042727;28;45309;-62
2021/08/29 05:43:13;;;;;;;;;10.00;8.75;;;;;18.73;58.99;101764.97;5024870;28;46728;-62
2021/08/29 05:45:39;;;;;;;;;11.25;9.50;;;;;18.77;59.53;101783.66;5042678;28;46299;-62
2021/08/29 05:48:04;;;;;;;;;12.75;10.25;;;;;18.76;59.40;101770.22;5042628;28;47170;-63
2021/08/29 05:50:30;;;;;;;;;12.50;8.75;;;;;18.75;59.40;101771.19;5042908;28;45450;-62
2021/08/29 05:52:55;;;;;;;;;9.75;9.75;;;;;18.80;59.22;101775.41;5024729;28;45820;-62
2021/08/29 05:55:20;;;;;;;;;9.00;7.50;;;;;18.78;59.62;101773.75;5042098;28;50724;-62
2021/08/29 05:57:46;;;;;;;;;9.75;7.50;;;;;18.78;59.09;101774.63;5042587;28;45591;-63
2021/08/29 06:00:12;;;;;;;;;10.50;8.50;;;;;18.79;59.33;101773.66;5042645;28;45308;-62
2021/08/29 06:02:37;;;;;;;;;9.00;9.00;;;;;18.69;59.63;101759.72;5024705;28;45480;-62
2021/08/29 06:05:03;;;;;;;;;8.00;7.50;;;;;18.78;59.61;101771.03;5042235;28;45415;-63
2021/08/29 06:07:28;;;;;;;;;8.75;8.75;;;;;18.77;59.64;101766.56;5042519;28;45470;-63
2021/08/29 06:09:54;;;;;;;;;11.50;7.75;;;;;18.82;59.64;101773.50;5042254;28;45345;-62
2021/08/29 06:12:19;;;;;;;;;7.00;6.50;;;;;18.79;59.13;101765.53;5042584;28;45557;-63
2021/08/29 06:14:44;;;;;;;;;9.25;8.50;;;;;18.87;59.48;101770.59;5042163;28;47016;-62
2021/08/29 06:17:09;;;;;;;;;7.00;5.75;;;;;18.90;59.45;101775.00;5042461;28;45255;-63
2021/08/29 06:19:35;;;;;;;;;6.50;6.50;;;;;18.85;59.31;101762.56;5042262;28;45150;-62
2021/08/29 06:22:00;;;;;;;;;11.25;11.25;;;;;18.87;59.43;101766.06;5042372;28;45193;-63
2021/08/29 06:24:25;;;;;;;;;9.25;9.25;;;;;18.92;59.27;101771.22;5042079;28;45249;-62
2021/08/29 06:26:51;;;;;;;;;8.25;7.75;;;;;18.69;59.19;101732.69;5042040;28;45379;-63
2021/08/29 06:29:18;;;;;;;;;8.50;8.25;;;;;18.94;58.99;101777.44;5042087;28;45371;-62
2021/08/29 06:31:43;;;;;;;;;11.25;9.50;;;;;18.95;59.39;101775.63;5042200;28;45705;-63
2021/08/29 06:34:09;;;;;;;;;7.25;7.25;;;;;18.90;59.14;101772.28;5042092;28;45196;-62
2021/08/29 06:36:34;;;;;;;;;9.00;8.00;;;;;18.91;59.33;101768.59;5042099;28;45332;-63
2021/08/29 06:38:59;;;;;;;;;7.00;7.00;;;;;18.94;59.13;101779.28;5041764;28;45413;-62
2021/08/29 06:41:25;;;;;;;;;8.50;8.00;;;;;18.95;59.32;101778.34;5040797;28;45363;-63
2021/08/29 06:43:51;;;;;;;;;8.50;6.25;;;;;18.87;59.32;101770.59;5041739;28;45473;-63
2021/08/29 06:46:16;;;;;;;;;6.50;5.50;;;;;18.94;59.77;101776.56;5042098;28;45338;-62
2021/08/29 06:48:41;;;;;;;;;6.75;5.50;;;;;18.95;59.49;101783.75;5041870;28;45489;-63
2021/08/29 06:51:07;;;;;;;;;6.00;6.00;;;;;18.82;59.78;101770.78;5041961;28;45422;-63
2021/08/29 06:53:32;;;;;;;;;5.75;5.75;;;;;18.87;59.29;101790.41;5041610;28;45334;-63
2021/08/29 06:55:57;;;;;;;;;8.00;6.00;;;;;18.79;59.39;101787.16;5041683;28;45458;-63
2021/08/29 06:58:23;;;;;;;;;7.00;7.00;;;;;18.81;59.72;101793.41;5041697;28;45465;-63
2021/08/29 07:00:48;;;;;;;;;9.00;6.75;;;;;18.81;59.41;101793.41;5041716;28;45485;-63
2021/08/29 07:03:14;;;;;;;;;6.00;6.00;;;;;18.79;59.50;101787.16;5041404;28;49757;-62
2021/08/29 07:05:40;;;;;;;;;10.50;8.25;;;;;18.81;59.35;101790.69;5041609;28;45412;-62
2021/08/29 07:08:05;;;;;;;;;5.25;4.25;;;;;18.83;59.65;101783.41;5041878;28;45204;-62
2021/08/29 07:10:30;;;;;;;;;7.00;6.00;;;;;18.85;59.71;101780.63;5041373;28;45693;-63
2021/08/29 07:12:56;;;;;;;;;4.75;4.75;;;;;18.85;59.23;101784.19;5041603;28;45946;-62
2021/08/29 07:15:21;;;;;;;;;10.25;6.50;;;;;18.83;59.43;101780.69;5035487;28;45335;-62
2021/08/29 07:17:46;;;;;;;;;6.75;6.00;;;;;18.83;59.47;101772.59;5021610;28;45472;-63
2021/08/29 07:20:12;;;;;;;;;5.50;5.50;;;;;18.86;59.39;101775.13;5021347;28;45344;-63
2021/08/29 07:22:38;;;;;;;;;7.25;6.75;;;;;18.93;59.47;101791.03;5021370;28;46720;-63
2021/08/29 07:25:03;;;;;;;;;5.50;4.50;;;;;18.93;59.78;101783.81;5027803;28;45340;-62
2021/08/29 07:27:29;;;;;;;;;8.25;6.25;;;;;18.89;59.11;101782.22;5041467;28;45214;-63
2021/08/29 07:29:54;;;;;;;;;7.25;6.00;;;;;18.91;59.41;101783.03;5041000;28;45648;-63
2021/08/29 07:32:20;;;;;;;;;7.00;6.00;;;;;18.93;59.69;101793.75;5041070;28;45947;-62
2021/08/29 07:34:45;;;;;;;;;6.00;6.00;;;;;18.91;59.43;101792.94;5041029;28;45320;-62
2021/08/29 07:37:11;;;;;;;;;9.50;8.25;;;;;18.83;59.35;101782.53;5041046;28;45265;-63
2021/08/29 07:39:36;;;;;;;;;6.50;5.25;;;;;18.74;59.41;101758.63;5040687;28;45304;-63
2021/08/29 07:42:01;;;;;;;;;8.25;6.50;;;;;18.91;59.80;101795.66;5040982;28;45328;-63
2021/08/29 07:44:27;;;;;;;;;7.50;7.50;;;;;18.85;59.48;101784.19;5040654;28;45375;-62
2021/08/29 07:46:52;;;;;;;;;7.75;5.50;;;;;18.95;59.61;101805.38;5041162;28;45343;-63
2021/08/29 07:49:17;;;;;;;;;9.00;7.75;;;;;18.91;59.62;101791.16;5040778;28;45300;-62
2021/08/29 07:51:43;;;;;;;;;11.25;9.50;;;;;18.87;59.22;101787.69;5040724;28;46508;-63
2021/08/29 07:54:08;;;;;;;;;7.50;6.25;;;;;18.93;59.01;101802.75;5040693;28;45394;-63
2021/08/29 07:56:33;;;;;;;;;7.00;7.00;;;;;18.92;59.04;101797.41;5040731;28;45437;-62
2021/08/29 07:58:59;;;;;;;;;7.25;7.25;;;;;18.86;59.51;101794.06;5040581;28;45415;-62
2021/08/29 08:01:24;;;;;;;;;7.00;7.00;;;;;18.93;59.30;101804.56;5040816;28;46225;-62
2021/08/29 08:03:49;;;;;;;;;8.00;5.25;;;;;18.89;58.93;101787.63;5040566;28;45273;-63
2021/08/29 08:06:14;;;;;;;;;6.75;6.00;;;;;18.88;59.28;101786.75;5040928;28;45224;-62
2021/08/29 08:08:40;;;;;;;;;4.75;4.75;;;;;18.89;59.64;101790.31;5040441;28;45217;-63
2021/08/29 08:11:06;;;;;;;;;6.00;6.00;;;;;18.98;59.67;101807.94;5040408;28;46300;-62
2021/08/29 08:13:31;;;;;;;;;6.00;5.75;;;;;18.90;59.36;101783.09;5040275;28;45217;-62
2021/08/29 08:15:57;;;;;;;;;6.50;6.50;;;;;18.98;59.08;101797.13;5040932;28;45336;-63
2021/08/29 08:18:22;;;;;;;;;5.00;5.00;;;;;18.99;59.15;101799.72;5040373;28;45553;-63
2021/08/29 08:20:47;;;;;;;;;7.00;6.50;;;;;18.94;59.16;101787.38;5040528;28;45501;-63
2021/08/29 08:23:13;;;;;;;;;6.25;6.25;;;;;19.00;59.52;101792.50;5040232;28;45269;-62
2021/08/29 08:25:38;;;;;;;;;7.25;6.25;;;;;18.96;59.02;101786.38;5040165;28;45300;-62
2021/08/29 08:28:04;;;;;;;;;5.75;5.75;;;;;18.99;58.97;101782.63;5040000;28;45508;-63
2021/08/29 08:30:29;;;;;;;;;10.50;9.00;;;;;19.01;59.12;101784.31;5040233;28;45497;-62
2021/08/29 08:32:55;;;;;;;;;7.50;7.50;;;;;18.99;58.88;101777.19;5038854;28;45386;-63
2021/08/29 08:35:20;;;;;;;;;10.25;7.75;;;;;18.95;58.93;101773.78;5040467;28;45357;-63
2021/08/29 08:37:46;;;;;;;;;9.50;6.50;;;;;19.05;59.38;101793.13;5039893;28;45396;-63
2021/08/29 08:40:12;;;;;;;;;11.50;8.00;;;;;19.04;59.00;101789.56;5039674;28;46295;-63
2021/08/29 08:42:37;;;;;;;;;9.00;8.50;;;;;19.05;59.10;101788.59;5039945;28;45324;-63
2021/08/29 08:45:03;;;;;;;;;8.50;8.50;;;;;19.01;59.12;101786.13;5040221;28;45364;-62
2021/08/29 08:47:31;;;;;;;;;11.00;7.25;;;;;19.09;59.16;101800.13;5039904;28;45439;-63
2021/08/29 08:49:58;;;;;;;;;9.00;6.50;;;;;19.10;59.18;101806.44;5039967;28;45304;-62
2021/08/29 08:52:26;;;;;;;;;9.25;7.00;;;;;19.00;59.08;101773.56;5039927;28;45474;-62
2021/08/29 08:54:54;;;;;;;;;7.25;7.25;;;;;19.06;59.03;101778.63;5040086;28;45403;-63
2021/08/29 08:57:20;;;;;;;;;8.00;6.50;;;;;19.04;58.74;101785.97;5039721;28;45247;-63
2021/08/29 08:59:47;;;;;;;;;5.75;5.50;;;;;19.02;58.88;101785.16;5039669;28;46260;-62
2021/08/29 09:02:13;;;;;;;;;8.50;7.00;;;;;19.14;59.28;101797.19;5039524;28;45274;-63
2021/08/29 09:04:40;;;;;;;;;7.00;6.00;;;;;19.16;59.30;101797.97;5039447;28;45317;-63
2021/08/29 09:07:06;;;;;;;;;9.25;6.75;;;;;19.17;58.66;101797.03;5039492;28;45423;-63
2021/08/29 09:09:35;;;;;;;;;6.00;6.00;;;;;19.20;58.89;101795.03;5039528;28;46290;-63
2021/08/29 09:12:01;;;;;;;;;8.00;8.00;;;;;19.23;58.64;101791.31;5039569;28;45217;-63
2021/08/29 09:14:47;;;;;;;;;4.25;4.00;;;;;19.25;58.89;101797.50;5039849;28;45177;-63
2021/08/29 09:17:24;;;;;;;;;5.50;5.25;;;;;19.25;58.53;101789.41;5039934;28;45425;-63
2021/08/29 09:19:50;;;;;;;;;5.00;4.75;;;;;19.24;58.48;101782.22;5039659;28;45442;-63
2021/08/29 09:22:25;;;;;;;;;7.00;7.00;;;;;19.30;57.99;101786.47;5039774;28;45378;-63
2021/08/29 09:24:51;;;;;;;;;5.50;5.50;;;;;19.23;58.43;101781.34;5039328;28;45499;-63
2021/08/29 09:27:16;;;;;;;;;6.00;6.00;;;;;19.30;58.32;101786.47;5018311;28;45843;-63
2021/08/29 09:29:42;;;;;;;;;6.25;5.50;;;;;19.32;58.63;101789.94;5036223;28;46037;-63
2021/08/29 09:32:08;;;;;;;;;5.50;5.50;;;;;19.34;58.27;101783.47;5039683;28;45456;-62
2021/08/29 09:34:34;;;;;;;;;6.00;6.00;;;;;19.32;58.26;101771.88;5021572;28;45378;-63
2021/08/29 09:37:00;;;;;;;;;5.00;5.00;;;;;19.27;58.07;101765.81;5039388;28;45450;-63
2021/08/29 09:39:25;;;;;;;;;5.00;5.00;;;;;19.34;58.12;101778.06;5039055;28;46134;-62
2021/08/29 09:42:01;;;;;;;;;6.50;6.00;;;;;19.33;57.88;101775.44;5039046;28;45351;-62
2021/08/29 09:44:32;;;;;;;;;5.00;5.00;;;;;19.40;58.68;101780.47;5039232;28;45312;-63
2021/08/29 09:47:04;;;;;;;;;10.25;9.00;;;;;19.28;58.03;101758.56;5039142;28;45315;-62
2021/08/29 09:49:32;;;;;;;;;4.25;4.25;;;;;19.44;57.69;101778.47;5039311;28;46432;-63
2021/08/29 09:51:59;;;;;;;;;7.25;5.25;;;;;19.41;57.88;101775.91;5039220;28;45296;-62
2021/08/29 09:54:35;;;;;;;;;6.50;5.50;;;;;19.46;57.78;101772.97;5039483;28;45415;-62
2021/08/29 09:57:05;;;;;;;;;6.00;6.00;;;;;19.48;58.22;101777.34;5039099;28;45253;-63
2021/08/29 09:59:44;;;;;;;;;6.00;5.25;;;;;19.52;57.93;101781.63;5039032;28;46214;-62
2021/08/29 10:02:28;;;;;;;;;7.00;5.50;;;;;19.51;57.34;101773.59;5038846;28;45517;-63
2021/08/29 10:05:16;;;;;;;;;5.00;5.00;;;;;19.52;57.55;101778.94;5039283;28;45450;-63
2021/08/29 10:07:58;;;;;;;;;5.00;5.00;;;;;19.53;57.65;101777.97;5039307;28;45205;-63
2021/08/29 10:10:29;;;;;;;;;4.00;4.00;;;;;19.55;57.60;101775.19;5038632;28;45648;-63
2021/08/29 10:12:55;;;;;;;;;7.50;5.00;;;;;19.50;57.50;101763.72;5038992;28;45370;-63
2021/08/29 10:15:21;;;;;;;;;4.75;3.50;;;;;19.57;57.75;101779.56;5021208;28;45307;-63
2021/08/29 10:17:47;;;;;;;;;5.75;5.50;;;;;19.59;57.48;101774.91;5042052;28;45307;-63
2021/08/29 10:20:14;;;;;;;;;5.75;5.50;;;;;19.61;57.43;101774.84;5042269;28;45361;-63
2021/08/29 10:22:40;;;;;;;;;7.50;5.50;;;;;19.60;57.56;101773.97;5042248;28;45281;-63
2021/08/29 10:25:08;;;;;;;;;5.00;5.00;;;;;19.55;57.29;101764.34;5042257;28;45233;-63
2021/08/29 10:27:38;;;;;;;;;5.00;5.00;;;;;19.60;57.46;101764.97;5042241;28;45364;-63
2021/08/29 10:30:08;;;;;;;;;6.50;5.75;;;;;19.61;57.31;101774.84;5041842;28;45881;-63
2021/08/29 10:32:45;;;;;;;;;5.75;5.25;;;;;19.63;57.36;101776.53;5042028;28;45535;-63
2021/08/29 10:35:11;;;;;;;;;7.00;6.00;;;;;19.64;57.36;101777.38;5042263;28;45268;-63
2021/08/29 10:37:38;;;;;;;;;6.25;6.25;;;;;19.58;57.34;101767.78;5041770;28;45773;-63
2021/08/29 10:40:05;;;;;;;;;7.00;6.00;;;;;19.65;57.29;101772.88;5041467;28;46395;-63
2021/08/29 10:42:35;;;;;;;;;6.00;6.00;;;;;19.68;57.48;101776.28;5041776;28;45316;-62
2021/08/29 10:45:01;;;;;;;;;8.50;8.50;;;;;19.70;57.50;101771.66;5042048;28;45320;-63
2021/08/29 10:47:27;;;;;;;;;9.25;7.25;;;;;19.73;57.29;101776.00;5041841;28;45256;-63
2021/08/29 10:49:54;;;;;;;;;5.25;5.00;;;;;19.76;57.50;101770.47;5041745;28;46370;-63
2021/08/29 10:52:20;;;;;;;;;8.75;8.00;;;;;19.70;57.59;101751.81;5040434;28;45306;-63
2021/08/29 10:54:53;;;;;;;;;7.00;7.00;;;;;19.78;57.66;101761.31;5041761;28;45260;-63
2021/08/29 10:57:39;;;;;;;;;8.25;8.25;;;;;19.80;57.64;101766.63;5041666;28;45522;-63
2021/08/29 11:00:36;;;;;;;;;7.50;6.50;;;;;19.85;57.24;101764.56;5041352;28;46055;-62
2021/08/29 11:03:02;;;;;;;;;7.25;6.25;;;;;19.80;56.93;101744.97;5018564;28;45490;-63
2021/08/29 11:05:27;;;;;;;;;7.75;7.75;;;;;19.90;57.34;101753.47;5041821;28;45435;-63
2021/08/29 11:07:53;;;;;;;;;8.00;6.67;;;;;19.86;57.08;101736.47;5041630;28;45250;-63
2021/08/29 11:10:37;;;;;;;;;6.00;6.00;;;;;19.93;56.65;101746.03;5041090;28;45256;-63
2021/08/29 11:13:39;;;;;;;;;5.75;5.25;;;;;19.93;56.39;101750.56;5041333;28;45233;-63
2021/08/29 11:16:13;;;;;;;;;7.00;7.00;;;;;19.94;56.88;101749.59;5041661;28;45240;-62
2021/08/29 11:19:03;;;;;;;;;6.25;6.25;;;;;19.95;56.64;101746.81;5041484;28;45565;-63
2021/08/29 11:21:54;;;;;;;;;7.50;7.00;;;;;19.98;56.72;101743.06;5041187;28;46527;-63
2021/08/29 11:24:45;;;;;;;;;7.00;7.00;;;;;19.99;56.69;101732.13;5041179;28;45369;-63